Deering, New Hampshire
Current Conditions -  °F | °C
As of 7:51 PM on Monday 22 Dec 2014 (Local Time) from KCON Reporting Station
Overcast Overcast  
Wind Chill: 34°   Ceiling: 900
Heat Index: 34°   Visibility: 10mi
Dew Point: 32°   Wind: 3mph
Humidity: 92%   Direction: 330°NNW
Pressure: 30.35"   Gusts: NA
Location:  43.1281°N, 71.9266°W
Report Text: KCON 230051Z AUTO 33003KT 10SM OVC009 01/00 A3035 RMK AO2 RAB2354E2355B11E12UPB09E11SNB2355E09 SLP283 P0001 T00110000
Loading
Personal Weather Stations






























Interactive Weather Map New forecast layout! Learn more

10-Day Weather Forecast

Advertisements
Track Severe Weather on mobile